Strona główna
METAR-TAF:

METAR-TAF

Lotnisko :

Harbin, Chiny

Port lotniczy Harbin-Taiping

Szerokość geograficzna: 45-45N, Długość geograficzna: 126-46E, wysokość: 143 m

Aktualna obserwacja pogody

Raport powstał 37 minut temu, godzina 05:00 UTC
Wiatr 8 kt od południowo-południowy zachód
Temperatura -14°C
Wilgotność 60%
Ciśnienie 1020 hPa
Widzialność 10 km lub więcej
Brak chmur poniżej 1500 m i brak chmur cumulonimbus

METAR: ZYHB 180500Z 20004MPS CAVOK M14/M20 Q1020 NOSIG

czas: 13:37 (05:37 UTC)

Prognoza

Raport powstał 2 godziny i 36 minut temu, godzina 03:01 UTC
Prognoza ważna od 18 godzina 06 UTC do 19 godzina 06 UTC
Wiatr 8 kt od południowo-południowy zachód
Widzialność: 5000 m
Przerywane chmury na wysokości 3000 ft
zamglenie

TAF: ZYHB 180301Z 1806/1906 21004MPS 5000 BR BKN030 TXM11/06Z TNM22/21Z

Obserwacja i prognoza pogody dla ponad 4000 lotnisk (raport METAR i TAF).

Dostępne stacje oznaczono żółtymi i czerwonymi punktami na mapie.

Najedź kursorem aby zobaczyć nazwę stacji.

Kliknij aby zobaczyć obserwacje i prognozy pogody.

Aby zmienić mapę: kliknij na zielony przycisk z czarnym krzyżykiem, aby powiększyć; na zielony przycisk z myślnikiem, aby pomniejszyć; na zielone strzałki, aby przejść do map sąsiednich.


METAR-TAF: